sensor_id;sensor_type;location;lat;lon;timestamp;P1;durP1;ratioP1;P2;durP2;ratioP2
24745;SDS011;12845;52.042;6.838;2023-07-31T00:00:29;4.70;;;2.53;;
24745;SDS011;12845;52.042;6.838;2023-07-31T00:02:55;5.50;;;2.85;;
24745;SDS011;12845;52.042;6.838;2023-07-31T00:05:20;4.95;;;3.05;;
24745;SDS011;12845;52.042;6.838;2023-07-31T00:07:46;6.80;;;3.47;;
24745;SDS011;12845;52.042;6.838;2023-07-31T00:10:12;4.78;;;3.00;;
24745;SDS011;12845;52.042;6.838;2023-07-31T00:12:41;5.80;;;3.30;;
24745;SDS011;12845;52.042;6.838;2023-07-31T00:15:08;6.90;;;3.88;;
24745;SDS011;12845;52.042;6.838;2023-07-31T00:17:34;5.70;;;3.28;;
24745;SDS011;12845;52.042;6.838;2023-07-31T00:20:00;7.63;;;3.45;;
24745;SDS011;12845;52.042;6.838;2023-07-31T00:22:25;6.20;;;2.85;;
24745;SDS011;12845;52.042;6.838;2023-07-31T00:24:51;5.90;;;3.13;;
24745;SDS011;12845;52.042;6.838;2023-07-31T00:27:16;4.57;;;2.60;;
24745;SDS011;12845;52.042;6.838;2023-07-31T00:29:41;6.20;;;2.78;;
24745;SDS011;12845;52.042;6.838;2023-07-31T00:32:07;4.60;;;2.83;;
24745;SDS011;12845;52.042;6.838;2023-07-31T00:34:32;5.60;;;2.58;;
24745;SDS011;12845;52.042;6.838;2023-07-31T00:36:58;4.70;;;2.85;;
24745;SDS011;12845;52.042;6.838;2023-07-31T00:39:23;5.10;;;2.50;;
24745;SDS011;12845;52.042;6.838;2023-07-31T00:41:49;5.30;;;2.78;;
24745;SDS011;12845;52.042;6.838;2023-07-31T00:44:14;4.82;;;2.90;;
24745;SDS011;12845;52.042;6.838;2023-07-31T00:46:39;4.65;;;2.75;;
24745;SDS011;12845;52.042;6.838;2023-07-31T00:49:05;5.50;;;3.33;;
24745;SDS011;12845;52.042;6.838;2023-07-31T00:51:30;7.97;;;2.90;;
24745;SDS011;12845;52.042;6.838;2023-07-31T00:53:56;5.20;;;2.58;;
24745;SDS011;12845;52.042;6.838;2023-07-31T00:56:21;4.53;;;2.65;;
24745;SDS011;12845;52.042;6.838;2023-07-31T00:58:47;4.38;;;2.80;;
24745;SDS011;12845;52.042;6.838;2023-07-31T01:01:12;4.60;;;3.28;;
24745;SDS011;12845;52.042;6.838;2023-07-31T01:03:41;5.30;;;2.97;;
24745;SDS011;12845;52.042;6.838;2023-07-31T01:09:10;5.47;;;3.70;;
24745;SDS011;12845;52.042;6.838;2023-07-31T01:11:52;4.15;;;2.63;;
24745;SDS011;12845;52.042;6.838;2023-07-31T01:14:18;4.03;;;2.30;;
24745;SDS011;12845;52.042;6.838;2023-07-31T01:16:44;4.05;;;2.60;;
24745;SDS011;12845;52.042;6.838;2023-07-31T01:19:09;2.88;;;2.30;;
24745;SDS011;12845;52.042;6.838;2023-07-31T01:21:48;3.85;;;2.17;;
24745;SDS011;12845;52.042;6.838;2023-07-31T01:27:15;3.53;;;2.55;;
24745;SDS011;12845;52.042;6.838;2023-07-31T01:29:53;3.13;;;2.20;;
24745;SDS011;12845;52.042;6.838;2023-07-31T01:32:29;3.53;;;1.83;;
24745;SDS011;12845;52.042;6.838;2023-07-31T01:34:54;2.67;;;1.88;;
24745;SDS011;12845;52.042;6.838;2023-07-31T01:37:22;3.93;;;2.03;;
24745;SDS011;12845;52.042;6.838;2023-07-31T01:39:53;2.42;;;1.90;;
24745;SDS011;12845;52.042;6.838;2023-07-31T01:42:19;4.93;;;2.28;;
24745;SDS011;12845;52.042;6.838;2023-07-31T01:44:44;3.65;;;2.78;;
24745;SDS011;12845;52.042;6.838;2023-07-31T01:47:09;6.40;;;3.78;;
24745;SDS011;12845;52.042;6.838;2023-07-31T01:49:35;5.95;;;3.75;;
24745;SDS011;12845;52.042;6.838;2023-07-31T01:52:00;9.38;;;5.22;;
24745;SDS011;12845;52.042;6.838;2023-07-31T01:54:25;8.13;;;4.85;;
24745;SDS011;12845;52.042;6.838;2023-07-31T01:56:51;14.18;;;6.97;;
24745;SDS011;12845;52.042;6.838;2023-07-31T01:59:16;15.63;;;7.75;;
24745;SDS011;12845;52.042;6.838;2023-07-31T02:01:41;20.52;;;9.13;;
24745;SDS011;12845;52.042;6.838;2023-07-31T02:04:07;19.88;;;9.45;;
24745;SDS011;12845;52.042;6.838;2023-07-31T02:06:32;27.63;;;11.38;;
24745;SDS011;12845;52.042;6.838;2023-07-31T02:08:57;27.25;;;11.43;;
24745;SDS011;12845;52.042;6.838;2023-07-31T02:11:23;29.25;;;12.88;;
24745;SDS011;12845;52.042;6.838;2023-07-31T02:13:48;33.25;;;14.38;;
24745;SDS011;12845;52.042;6.838;2023-07-31T02:16:14;27.15;;;12.98;;
24745;SDS011;12845;52.042;6.838;2023-07-31T02:18:39;34.90;;;15.07;;
24745;SDS011;12845;52.042;6.838;2023-07-31T02:21:04;34.03;;;14.95;;
24745;SDS011;12845;52.042;6.838;2023-07-31T02:23:30;32.95;;;16.50;;
24745;SDS011;12845;52.042;6.838;2023-07-31T02:25:55;32.63;;;15.75;;
24745;SDS011;12845;52.042;6.838;2023-07-31T02:28:20;35.40;;;15.98;;
24745;SDS011;12845;52.042;6.838;2023-07-31T02:30:46;29.00;;;14.77;;
24745;SDS011;12845;52.042;6.838;2023-07-31T02:33:11;35.33;;;16.85;;
24745;SDS011;12845;52.042;6.838;2023-07-31T02:35:36;33.53;;;15.77;;
24745;SDS011;12845;52.042;6.838;2023-07-31T02:38:02;46.17;;;16.73;;
24745;SDS011;12845;52.042;6.838;2023-07-31T02:40:27;34.97;;;17.45;;
24745;SDS011;12845;52.042;6.838;2023-07-31T02:42:53;31.27;;;15.55;;
24745;SDS011;12845;52.042;6.838;2023-07-31T02:45:18;33.05;;;15.88;;
24745;SDS011;12845;52.042;6.838;2023-07-31T02:47:43;36.55;;;16.25;;
24745;SDS011;12845;52.042;6.838;2023-07-31T02:50:09;32.40;;;15.10;;
24745;SDS011;12845;52.042;6.838;2023-07-31T02:52:34;37.08;;;15.68;;
24745;SDS011;12845;52.042;6.838;2023-07-31T02:55:00;30.55;;;14.75;;
24745;SDS011;12845;52.042;6.838;2023-07-31T02:57:25;28.13;;;14.32;;
24745;SDS011;12845;52.042;6.838;2023-07-31T02:59:50;32.28;;;14.30;;
24745;SDS011;12845;52.042;6.838;2023-07-31T03:02:16;29.40;;;12.82;;
24745;SDS011;12845;52.042;6.838;2023-07-31T03:04:41;27.65;;;13.52;;
24745;SDS011;12845;52.042;6.838;2023-07-31T03:07:06;26.48;;;13.90;;
24745;SDS011;12845;52.042;6.838;2023-07-31T03:09:32;26.13;;;13.38;;
24745;SDS011;12845;52.042;6.838;2023-07-31T03:11:57;22.40;;;11.15;;
24745;SDS011;12845;52.042;6.838;2023-07-31T03:14:23;25.52;;;13.43;;
24745;SDS011;12845;52.042;6.838;2023-07-31T03:16:48;28.70;;;11.30;;
24745;SDS011;12845;52.042;6.838;2023-07-31T03:19:14;23.75;;;11.05;;
24745;SDS011;12845;52.042;6.838;2023-07-31T03:21:39;27.55;;;11.75;;
24745;SDS011;12845;52.042;6.838;2023-07-31T03:24:04;24.67;;;10.93;;
24745;SDS011;12845;52.042;6.838;2023-07-31T03:26:31;23.98;;;12.20;;
24745;SDS011;12845;52.042;6.838;2023-07-31T03:28:57;23.25;;;12.45;;
24745;SDS011;12845;52.042;6.838;2023-07-31T03:31:22;25.70;;;11.18;;
24745;SDS011;12845;52.042;6.838;2023-07-31T03:33:47;26.38;;;12.43;;
24745;SDS011;12845;52.042;6.838;2023-07-31T03:36:12;19.73;;;9.65;;
24745;SDS011;12845;52.042;6.838;2023-07-31T03:38:38;23.67;;;10.70;;
24745;SDS011;12845;52.042;6.838;2023-07-31T03:41:03;23.75;;;11.02;;
24745;SDS011;12845;52.042;6.838;2023-07-31T03:43:31;22.35;;;9.27;;
24745;SDS011;12845;52.042;6.838;2023-07-31T03:45:58;25.13;;;10.27;;
24745;SDS011;12845;52.042;6.838;2023-07-31T03:48:23;23.08;;;10.57;;
24745;SDS011;12845;52.042;6.838;2023-07-31T03:50:48;26.25;;;9.63;;
24745;SDS011;12845;52.042;6.838;2023-07-31T03:53:14;22.70;;;9.43;;
24745;SDS011;12845;52.042;6.838;2023-07-31T03:55:39;19.70;;;10.38;;
24745;SDS011;12845;52.042;6.838;2023-07-31T03:58:05;23.05;;;9.95;;
24745;SDS011;12845;52.042;6.838;2023-07-31T04:00:30;19.42;;;9.07;;
24745;SDS011;12845;52.042;6.838;2023-07-31T04:02:55;17.88;;;9.00;;
24745;SDS011;12845;52.042;6.838;2023-07-31T04:05:21;18.95;;;9.00;;
24745;SDS011;12845;52.042;6.838;2023-07-31T04:07:46;20.52;;;9.18;;
24745;SDS011;12845;52.042;6.838;2023-07-31T04:10:12;19.83;;;8.27;;
24745;SDS011;12845;52.042;6.838;2023-07-31T04:12:37;17.83;;;8.55;;
24745;SDS011;12845;52.042;6.838;2023-07-31T04:15:02;21.65;;;8.50;;
24745;SDS011;12845;52.042;6.838;2023-07-31T04:17:28;19.50;;;6.88;;
24745;SDS011;12845;52.042;6.838;2023-07-31T04:19:53;18.52;;;7.30;;
24745;SDS011;12845;52.042;6.838;2023-07-31T04:22:18;19.35;;;8.45;;
24745;SDS011;12845;52.042;6.838;2023-07-31T04:24:44;21.60;;;7.35;;
24745;SDS011;12845;52.042;6.838;2023-07-31T04:27:10;22.65;;;7.38;;
24745;SDS011;12845;52.042;6.838;2023-07-31T04:29:35;19.05;;;6.70;;
24745;SDS011;12845;52.042;6.838;2023-07-31T04:32:00;17.98;;;7.45;;
24745;SDS011;12845;52.042;6.838;2023-07-31T04:34:26;18.00;;;6.97;;
24745;SDS011;12845;52.042;6.838;2023-07-31T04:36:51;19.13;;;6.75;;
24745;SDS011;12845;52.042;6.838;2023-07-31T04:39:16;16.05;;;6.68;;
24745;SDS011;12845;52.042;6.838;2023-07-31T04:41:42;24.77;;;6.97;;
24745;SDS011;12845;52.042;6.838;2023-07-31T04:44:07;19.10;;;6.60;;
24745;SDS011;12845;52.042;6.838;2023-07-31T04:46:32;19.15;;;6.97;;
24745;SDS011;12845;52.042;6.838;2023-07-31T04:48:58;17.35;;;6.18;;
24745;SDS011;12845;52.042;6.838;2023-07-31T04:51:23;13.73;;;5.68;;
24745;SDS011;12845;52.042;6.838;2023-07-31T04:53:48;12.38;;;5.53;;
24745;SDS011;12845;52.042;6.838;2023-07-31T04:56:14;15.15;;;6.07;;
24745;SDS011;12845;52.042;6.838;2023-07-31T04:58:40;16.80;;;6.68;;
24745;SDS011;12845;52.042;6.838;2023-07-31T05:01:06;21.08;;;6.18;;
24745;SDS011;12845;52.042;6.838;2023-07-31T05:03:31;15.35;;;5.75;;
24745;SDS011;12845;52.042;6.838;2023-07-31T05:05:56;19.73;;;7.07;;
24745;SDS011;12845;52.042;6.838;2023-07-31T05:08:22;15.57;;;5.47;;
24745;SDS011;12845;52.042;6.838;2023-07-31T05:10:47;13.88;;;6.15;;
24745;SDS011;12845;52.042;6.838;2023-07-31T05:13:13;19.92;;;6.63;;
24745;SDS011;12845;52.042;6.838;2023-07-31T05:15:39;15.43;;;5.80;;
24745;SDS011;12845;52.042;6.838;2023-07-31T05:18:06;19.35;;;5.55;;
24745;SDS011;12845;52.042;6.838;2023-07-31T05:20:31;17.42;;;6.60;;
24745;SDS011;12845;52.042;6.838;2023-07-31T05:22:56;14.32;;;5.78;;
24745;SDS011;12845;52.042;6.838;2023-07-31T05:25:22;18.00;;;6.47;;
24745;SDS011;12845;52.042;6.838;2023-07-31T05:27:47;19.65;;;6.13;;
24745;SDS011;12845;52.042;6.838;2023-07-31T05:30:12;12.63;;;5.78;;
24745;SDS011;12845;52.042;6.838;2023-07-31T05:32:38;18.40;;;6.63;;
24745;SDS011;12845;52.042;6.838;2023-07-31T05:35:03;13.90;;;6.57;;
24745;SDS011;12845;52.042;6.838;2023-07-31T05:37:29;14.95;;;5.53;;
24745;SDS011;12845;52.042;6.838;2023-07-31T05:39:54;14.68;;;6.45;;
24745;SDS011;12845;52.042;6.838;2023-07-31T05:42:20;20.05;;;8.10;;
24745;SDS011;12845;52.042;6.838;2023-07-31T05:44:45;14.60;;;6.63;;
24745;SDS011;12845;52.042;6.838;2023-07-31T05:47:12;16.23;;;6.53;;
24745;SDS011;12845;52.042;6.838;2023-07-31T05:49:37;17.08;;;7.85;;
24745;SDS011;12845;52.042;6.838;2023-07-31T05:52:03;13.38;;;6.65;;
24745;SDS011;12845;52.042;6.838;2023-07-31T05:54:28;13.55;;;6.78;;
24745;SDS011;12845;52.042;6.838;2023-07-31T05:56:53;16.02;;;6.60;;
24745;SDS011;12845;52.042;6.838;2023-07-31T05:59:19;17.85;;;6.60;;
24745;SDS011;12845;52.042;6.838;2023-07-31T06:01:44;15.45;;;5.68;;
24745;SDS011;12845;52.042;6.838;2023-07-31T06:04:10;13.60;;;6.53;;
24745;SDS011;12845;52.042;6.838;2023-07-31T06:06:35;14.40;;;5.65;;
24745;SDS011;12845;52.042;6.838;2023-07-31T06:09:00;16.38;;;6.60;;
24745;SDS011;12845;52.042;6.838;2023-07-31T06:11:26;12.80;;;5.93;;
24745;SDS011;12845;52.042;6.838;2023-07-31T06:13:51;18.20;;;5.68;;
24745;SDS011;12845;52.042;6.838;2023-07-31T06:16:16;14.27;;;6.20;;
24745;SDS011;12845;52.042;6.838;2023-07-31T06:18:42;17.63;;;6.68;;
24745;SDS011;12845;52.042;6.838;2023-07-31T06:21:08;13.40;;;5.85;;
24745;SDS011;12845;52.042;6.838;2023-07-31T06:23:34;13.40;;;6.38;;
24745;SDS011;12845;52.042;6.838;2023-07-31T06:25:59;15.88;;;6.05;;
24745;SDS011;12845;52.042;6.838;2023-07-31T06:28:27;13.85;;;5.57;;
24745;SDS011;12845;52.042;6.838;2023-07-31T06:30:59;15.20;;;6.28;;
24745;SDS011;12845;52.042;6.838;2023-07-31T06:35:51;16.45;;;6.75;;
24745;SDS011;12845;52.042;6.838;2023-07-31T06:38:18;14.57;;;5.72;;
24745;SDS011;12845;52.042;6.838;2023-07-31T06:40:48;10.05;;;5.82;;
24745;SDS011;12845;52.042;6.838;2023-07-31T06:43:14;12.23;;;5.60;;
24745;SDS011;12845;52.042;6.838;2023-07-31T06:45:39;14.88;;;6.85;;
24745;SDS011;12845;52.042;6.838;2023-07-31T06:48:04;17.58;;;5.68;;
24745;SDS011;12845;52.042;6.838;2023-07-31T06:50:30;14.50;;;7.28;;
24745;SDS011;12845;52.042;6.838;2023-07-31T06:52:56;15.45;;;6.88;;
24745;SDS011;12845;52.042;6.838;2023-07-31T06:55:22;13.15;;;7.32;;
24745;SDS011;12845;52.042;6.838;2023-07-31T06:57:49;12.20;;;7.07;;
24745;SDS011;12845;52.042;6.838;2023-07-31T07:00:16;17.17;;;8.68;;
24745;SDS011;12845;52.042;6.838;2023-07-31T07:02:42;16.38;;;7.70;;
24745;SDS011;12845;52.042;6.838;2023-07-31T07:05:08;14.55;;;7.05;;
24745;SDS011;12845;52.042;6.838;2023-07-31T07:07:34;12.95;;;6.80;;
24745;SDS011;12845;52.042;6.838;2023-07-31T07:10:00;14.05;;;7.13;;
24745;SDS011;12845;52.042;6.838;2023-07-31T07:12:25;14.80;;;6.80;;
24745;SDS011;12845;52.042;6.838;2023-07-31T07:14:52;12.88;;;8.15;;
24745;SDS011;12845;52.042;6.838;2023-07-31T07:17:18;14.18;;;8.30;;
24745;SDS011;12845;52.042;6.838;2023-07-31T07:19:44;11.52;;;7.18;;
24745;SDS011;12845;52.042;6.838;2023-07-31T07:22:10;10.50;;;6.68;;
24745;SDS011;12845;52.042;6.838;2023-07-31T07:24:36;9.60;;;5.72;;
24745;SDS011;12845;52.042;6.838;2023-07-31T07:27:01;6.97;;;5.60;;
24745;SDS011;12845;52.042;6.838;2023-07-31T07:29:27;9.23;;;5.75;;
24745;SDS011;12845;52.042;6.838;2023-07-31T07:31:52;7.38;;;5.18;;
24745;SDS011;12845;52.042;6.838;2023-07-31T07:34:17;7.75;;;5.68;;
24745;SDS011;12845;52.042;6.838;2023-07-31T07:36:43;9.88;;;6.43;;
24745;SDS011;12845;52.042;6.838;2023-07-31T07:39:09;10.43;;;6.57;;
24745;SDS011;12845;52.042;6.838;2023-07-31T07:41:36;7.97;;;6.18;;
24745;SDS011;12845;52.042;6.838;2023-07-31T07:44:01;8.63;;;6.10;;
24745;SDS011;12845;52.042;6.838;2023-07-31T07:46:26;8.85;;;5.90;;
24745;SDS011;12845;52.042;6.838;2023-07-31T07:48:52;8.52;;;5.60;;
24745;SDS011;12845;52.042;6.838;2023-07-31T07:51:17;10.25;;;6.22;;
24745;SDS011;12845;52.042;6.838;2023-07-31T07:53:42;11.48;;;6.82;;
24745;SDS011;12845;52.042;6.838;2023-07-31T07:56:08;8.73;;;6.15;;
24745;SDS011;12845;52.042;6.838;2023-07-31T07:58:33;9.48;;;5.72;;
24745;SDS011;12845;52.042;6.838;2023-07-31T08:00:58;8.50;;;6.15;;
24745;SDS011;12845;52.042;6.838;2023-07-31T08:03:24;7.25;;;5.18;;
24745;SDS011;12845;52.042;6.838;2023-07-31T08:05:49;7.95;;;5.05;;
24745;SDS011;12845;52.042;6.838;2023-07-31T08:08:15;8.63;;;5.20;;
24745;SDS011;12845;52.042;6.838;2023-07-31T08:10:42;5.40;;;4.90;;
24745;SDS011;12845;52.042;6.838;2023-07-31T08:13:09;6.75;;;4.95;;
24745;SDS011;12845;52.042;6.838;2023-07-31T08:15:36;6.30;;;5.47;;
24745;SDS011;12845;52.042;6.838;2023-07-31T08:18:01;5.93;;;5.32;;
24745;SDS011;12845;52.042;6.838;2023-07-31T08:20:27;7.60;;;5.65;;
24745;SDS011;12845;52.042;6.838;2023-07-31T08:22:52;6.85;;;5.45;;
24745;SDS011;12845;52.042;6.838;2023-07-31T08:25:18;6.85;;;5.88;;
24745;SDS011;12845;52.042;6.838;2023-07-31T08:27:43;7.20;;;4.50;;
24745;SDS011;12845;52.042;6.838;2023-07-31T08:30:09;9.55;;;5.50;;
24745;SDS011;12845;52.042;6.838;2023-07-31T08:32:36;7.35;;;5.07;;
24745;SDS011;12845;52.042;6.838;2023-07-31T08:35:01;6.05;;;4.93;;
24745;SDS011;12845;52.042;6.838;2023-07-31T08:37:27;6.97;;;4.80;;
24745;SDS011;12845;52.042;6.838;2023-07-31T08:39:52;6.88;;;5.07;;
24745;SDS011;12845;52.042;6.838;2023-07-31T08:42:19;5.57;;;4.50;;
24745;SDS011;12845;52.042;6.838;2023-07-31T08:44:45;6.75;;;4.65;;
24745;SDS011;12845;52.042;6.838;2023-07-31T08:47:11;4.55;;;4.10;;
24745;SDS011;12845;52.042;6.838;2023-07-31T08:49:37;7.15;;;4.88;;
24745;SDS011;12845;52.042;6.838;2023-07-31T08:52:05;5.03;;;4.30;;
24745;SDS011;12845;52.042;6.838;2023-07-31T08:54:31;6.60;;;4.80;;
24745;SDS011;12845;52.042;6.838;2023-07-31T08:56:58;5.85;;;4.75;;
24745;SDS011;12845;52.042;6.838;2023-07-31T08:59:25;5.45;;;4.40;;
24745;SDS011;12845;52.042;6.838;2023-07-31T09:04:20;5.65;;;4.60;;
24745;SDS011;12845;52.042;6.838;2023-07-31T09:06:47;5.40;;;4.22;;
24745;SDS011;12845;52.042;6.838;2023-07-31T09:09:13;8.23;;;5.00;;
24745;SDS011;12845;52.042;6.838;2023-07-31T09:11:40;6.50;;;4.38;;
24745;SDS011;12845;52.042;6.838;2023-07-31T09:14:05;5.80;;;4.30;;
24745;SDS011;12845;52.042;6.838;2023-07-31T09:16:33;5.95;;;5.35;;
24745;SDS011;12845;52.042;6.838;2023-07-31T09:18:59;5.55;;;4.30;;
24745;SDS011;12845;52.042;6.838;2023-07-31T09:21:27;5.53;;;3.95;;
24745;SDS011;12845;52.042;6.838;2023-07-31T09:23:53;5.82;;;5.00;;
24745;SDS011;12845;52.042;6.838;2023-07-31T09:26:35;7.53;;;4.55;;
24745;SDS011;12845;52.042;6.838;2023-07-31T09:29:03;3.97;;;3.58;;
24745;SDS011;12845;52.042;6.838;2023-07-31T09:34:06;5.65;;;4.70;;
24745;SDS011;12845;52.042;6.838;2023-07-31T09:36:31;4.45;;;3.97;;
24745;SDS011;12845;52.042;6.838;2023-07-31T09:39:03;4.25;;;3.85;;
24745;SDS011;12845;52.042;6.838;2023-07-31T09:41:29;4.47;;;3.67;;
24745;SDS011;12845;52.042;6.838;2023-07-31T09:43:55;4.72;;;4.10;;
24745;SDS011;12845;52.042;6.838;2023-07-31T09:46:21;5.18;;;4.30;;
24745;SDS011;12845;52.042;6.838;2023-07-31T09:48:46;4.63;;;3.58;;
24745;SDS011;12845;52.042;6.838;2023-07-31T09:51:12;4.80;;;3.95;;
24745;SDS011;12845;52.042;6.838;2023-07-31T09:53:37;5.00;;;4.50;;
24745;SDS011;12845;52.042;6.838;2023-07-31T09:56:03;4.25;;;3.70;;
24745;SDS011;12845;52.042;6.838;2023-07-31T09:58:29;4.53;;;4.03;;
24745;SDS011;12845;52.042;6.838;2023-07-31T10:00:59;5.05;;;4.25;;
24745;SDS011;12845;52.042;6.838;2023-07-31T10:03:25;5.07;;;4.20;;
24745;SDS011;12845;52.042;6.838;2023-07-31T10:05:52;5.30;;;4.47;;
24745;SDS011;12845;52.042;6.838;2023-07-31T10:10:48;6.77;;;4.47;;
24745;SDS011;12845;52.042;6.838;2023-07-31T10:13:14;5.32;;;4.57;;
24745;SDS011;12845;52.042;6.838;2023-07-31T10:15:40;6.13;;;4.78;;
24745;SDS011;12845;52.042;6.838;2023-07-31T10:18:07;7.03;;;4.72;;
24745;SDS011;12845;52.042;6.838;2023-07-31T10:20:33;7.47;;;5.28;;
24745;SDS011;12845;52.042;6.838;2023-07-31T10:22:59;5.68;;;4.53;;
24745;SDS011;12845;52.042;6.838;2023-07-31T10:25:25;5.45;;;4.45;;
24745;SDS011;12845;52.042;6.838;2023-07-31T10:27:52;7.35;;;4.60;;
24745;SDS011;12845;52.042;6.838;2023-07-31T10:30:20;6.20;;;4.78;;
24745;SDS011;12845;52.042;6.838;2023-07-31T10:32:49;5.95;;;4.95;;
24745;SDS011;12845;52.042;6.838;2023-07-31T10:35:17;6.80;;;5.15;;
24745;SDS011;12845;52.042;6.838;2023-07-31T10:37:43;5.70;;;4.68;;
24745;SDS011;12845;52.042;6.838;2023-07-31T10:40:13;6.68;;;5.70;;
24745;SDS011;12845;52.042;6.838;2023-07-31T10:42:45;6.25;;;4.72;;
24745;SDS011;12845;52.042;6.838;2023-07-31T10:45:23;6.57;;;5.57;;
24745;SDS011;12845;52.042;6.838;2023-07-31T10:47:57;6.97;;;5.22;;
24745;SDS011;12845;52.042;6.838;2023-07-31T10:50:24;6.07;;;5.40;;
24745;SDS011;12845;52.042;6.838;2023-07-31T10:52:54;7.78;;;5.50;;
24745;SDS011;12845;52.042;6.838;2023-07-31T10:55:33;7.60;;;5.13;;
24745;SDS011;12845;52.042;6.838;2023-07-31T10:58:11;6.38;;;5.30;;
24745;SDS011;12845;52.042;6.838;2023-07-31T11:00:41;10.05;;;6.28;;
24745;SDS011;12845;52.042;6.838;2023-07-31T11:03:14;8.15;;;6.57;;
24745;SDS011;12845;52.042;6.838;2023-07-31T11:08:12;9.50;;;6.70;;
24745;SDS011;12845;52.042;6.838;2023-07-31T11:10:38;11.25;;;7.72;;
24745;SDS011;12845;52.042;6.838;2023-07-31T11:13:04;9.07;;;7.13;;
24745;SDS011;12845;52.042;6.838;2023-07-31T11:15:30;12.73;;;7.57;;
24745;SDS011;12845;52.042;6.838;2023-07-31T11:17:56;10.23;;;6.80;;
24745;SDS011;12845;52.042;6.838;2023-07-31T11:20:23;11.20;;;8.95;;
24745;SDS011;12845;52.042;6.838;2023-07-31T11:22:49;8.88;;;7.28;;
24745;SDS011;12845;52.042;6.838;2023-07-31T11:25:14;10.73;;;8.20;;
24745;SDS011;12845;52.042;6.838;2023-07-31T11:27:41;10.82;;;8.93;;
24745;SDS011;12845;52.042;6.838;2023-07-31T11:30:07;12.05;;;7.70;;
24745;SDS011;12845;52.042;6.838;2023-07-31T11:32:32;10.55;;;7.68;;
24745;SDS011;12845;52.042;6.838;2023-07-31T11:34:58;14.05;;;9.02;;
24745;SDS011;12845;52.042;6.838;2023-07-31T11:37:23;12.15;;;9.45;;
24745;SDS011;12845;52.042;6.838;2023-07-31T11:39:58;13.80;;;9.95;;
24745;SDS011;12845;52.042;6.838;2023-07-31T11:42:24;11.18;;;9.32;;
24745;SDS011;12845;52.042;6.838;2023-07-31T11:44:50;12.13;;;9.07;;
24745;SDS011;12845;52.042;6.838;2023-07-31T11:47:15;13.63;;;9.80;;
24745;SDS011;12845;52.042;6.838;2023-07-31T11:49:41;11.40;;;9.82;;
24745;SDS011;12845;52.042;6.838;2023-07-31T11:52:08;13.32;;;8.48;;
24745;SDS011;12845;52.042;6.838;2023-07-31T11:54:34;12.82;;;9.20;;
24745;SDS011;12845;52.042;6.838;2023-07-31T11:57:00;10.73;;;8.88;;
24745;SDS011;12845;52.042;6.838;2023-07-31T11:59:26;11.00;;;8.70;;
24745;SDS011;12845;52.042;6.838;2023-07-31T12:01:52;11.25;;;7.75;;
24745;SDS011;12845;52.042;6.838;2023-07-31T12:04:18;11.75;;;8.07;;
24745;SDS011;12845;52.042;6.838;2023-07-31T12:06:46;10.40;;;7.68;;
24745;SDS011;12845;52.042;6.838;2023-07-31T12:09:14;9.40;;;6.13;;
24745;SDS011;12845;52.042;6.838;2023-07-31T12:11:43;11.68;;;7.47;;
24745;SDS011;12845;52.042;6.838;2023-07-31T12:14:20;12.00;;;7.18;;
24745;SDS011;12845;52.042;6.838;2023-07-31T12:16:47;12.20;;;7.40;;
24745;SDS011;12845;52.042;6.838;2023-07-31T12:19:12;10.60;;;6.82;;
24745;SDS011;12845;52.042;6.838;2023-07-31T12:21:38;10.65;;;6.93;;
24745;SDS011;12845;52.042;6.838;2023-07-31T12:24:03;10.10;;;6.82;;
24745;SDS011;12845;52.042;6.838;2023-07-31T12:26:38;9.82;;;7.03;;
24745;SDS011;12845;52.042;6.838;2023-07-31T12:29:05;10.45;;;6.60;;
24745;SDS011;12845;52.042;6.838;2023-07-31T12:31:33;11.65;;;7.07;;
24745;SDS011;12845;52.042;6.838;2023-07-31T12:34:01;11.23;;;7.15;;
24745;SDS011;12845;52.042;6.838;2023-07-31T12:36:27;9.70;;;6.82;;
24745;SDS011;12845;52.042;6.838;2023-07-31T12:38:55;10.68;;;7.80;;
24745;SDS011;12845;52.042;6.838;2023-07-31T12:41:23;13.15;;;8.25;;
24745;SDS011;12845;52.042;6.838;2023-07-31T12:43:49;10.55;;;7.07;;
24745;SDS011;12845;52.042;6.838;2023-07-31T12:46:14;7.35;;;5.93;;
24745;SDS011;12845;52.042;6.838;2023-07-31T12:48:40;12.00;;;6.70;;
24745;SDS011;12845;52.042;6.838;2023-07-31T12:51:05;9.10;;;6.85;;
24745;SDS011;12845;52.042;6.838;2023-07-31T12:53:32;11.50;;;8.07;;
24745;SDS011;12845;52.042;6.838;2023-07-31T12:55:58;18.25;;;10.30;;
24745;SDS011;12845;52.042;6.838;2023-07-31T12:58:24;10.13;;;5.78;;
24745;SDS011;12845;52.042;6.838;2023-07-31T13:00:49;10.32;;;7.57;;
24745;SDS011;12845;52.042;6.838;2023-07-31T13:03:15;9.60;;;7.15;;
24745;SDS011;12845;52.042;6.838;2023-07-31T13:05:40;10.25;;;6.85;;
24745;SDS011;12845;52.042;6.838;2023-07-31T13:08:05;10.55;;;6.25;;
24745;SDS011;12845;52.042;6.838;2023-07-31T13:10:31;8.60;;;6.25;;
24745;SDS011;12845;52.042;6.838;2023-07-31T13:12:56;9.27;;;5.88;;
24745;SDS011;12845;52.042;6.838;2023-07-31T13:15:22;13.27;;;6.78;;
24745;SDS011;12845;52.042;6.838;2023-07-31T13:17:48;9.95;;;5.63;;
24745;SDS011;12845;52.042;6.838;2023-07-31T13:20:13;9.63;;;6.38;;
24745;SDS011;12845;52.042;6.838;2023-07-31T13:22:39;12.13;;;6.78;;
24745;SDS011;12845;52.042;6.838;2023-07-31T13:25:04;7.68;;;4.47;;
24745;SDS011;12845;52.042;6.838;2023-07-31T13:27:31;8.70;;;5.22;;
24745;SDS011;12845;52.042;6.838;2023-07-31T13:29:56;6.93;;;5.30;;
24745;SDS011;12845;52.042;6.838;2023-07-31T13:32:22;9.13;;;5.53;;
24745;SDS011;12845;52.042;6.838;2023-07-31T13:34:47;10.32;;;5.82;;
24745;SDS011;12845;52.042;6.838;2023-07-31T13:37:13;8.23;;;5.43;;
24745;SDS011;12845;52.042;6.838;2023-07-31T13:39:39;10.27;;;5.32;;
24745;SDS011;12845;52.042;6.838;2023-07-31T13:42:05;6.40;;;4.90;;
24745;SDS011;12845;52.042;6.838;2023-07-31T13:44:33;9.32;;;5.00;;
24745;SDS011;12845;52.042;6.838;2023-07-31T13:47:01;7.57;;;4.40;;
24745;SDS011;12845;52.042;6.838;2023-07-31T13:49:27;7.35;;;4.10;;
24745;SDS011;12845;52.042;6.838;2023-07-31T13:51:53;6.07;;;4.30;;
24745;SDS011;12845;52.042;6.838;2023-07-31T13:54:19;7.13;;;4.55;;
24745;SDS011;12845;52.042;6.838;2023-07-31T13:56:44;7.50;;;4.75;;
24745;SDS011;12845;52.042;6.838;2023-07-31T13:59:17;7.75;;;4.75;;
24745;SDS011;12845;52.042;6.838;2023-07-31T14:01:43;6.13;;;4.45;;
24745;SDS011;12845;52.042;6.838;2023-07-31T14:04:09;6.85;;;4.20;;
24745;SDS011;12845;52.042;6.838;2023-07-31T14:06:35;7.88;;;4.25;;
24745;SDS011;12845;52.042;6.838;2023-07-31T14:09:01;6.10;;;3.90;;
24745;SDS011;12845;52.042;6.838;2023-07-31T14:11:27;8.35;;;3.88;;
24745;SDS011;12845;52.042;6.838;2023-07-31T14:13:53;6.82;;;3.72;;
24745;SDS011;12845;52.042;6.838;2023-07-31T14:16:18;6.10;;;3.45;;
24745;SDS011;12845;52.042;6.838;2023-07-31T14:18:44;8.05;;;3.95;;
24745;SDS011;12845;52.042;6.838;2023-07-31T14:21:10;6.13;;;3.80;;
24745;SDS011;12845;52.042;6.838;2023-07-31T14:23:36;8.90;;;4.03;;
24745;SDS011;12845;52.042;6.838;2023-07-31T14:26:02;8.60;;;5.30;;
24745;SDS011;12845;52.042;6.838;2023-07-31T14:28:27;5.45;;;3.88;;
24745;SDS011;12845;52.042;6.838;2023-07-31T14:30:52;9.13;;;4.93;;
24745;SDS011;12845;52.042;6.838;2023-07-31T14:33:18;8.80;;;4.88;;
24745;SDS011;12845;52.042;6.838;2023-07-31T14:35:43;6.53;;;4.35;;
24745;SDS011;12845;52.042;6.838;2023-07-31T14:38:08;6.70;;;4.72;;
24745;SDS011;12845;52.042;6.838;2023-07-31T14:40:34;8.93;;;5.40;;
24745;SDS011;12845;52.042;6.838;2023-07-31T14:42:59;8.43;;;4.97;;
24745;SDS011;12845;52.042;6.838;2023-07-31T14:45:25;7.95;;;5.28;;
24745;SDS011;12845;52.042;6.838;2023-07-31T14:47:50;8.50;;;5.22;;
24745;SDS011;12845;52.042;6.838;2023-07-31T14:50:15;11.52;;;6.68;;